Yardley, Pennsylvania
Current Conditions -  °F | °C
As of 5:53 AM on Tuesday 21 Oct 2014 (Local Time) from KTTN Reporting Station
Overcast Overcast  
Wind Chill:   Ceiling: 9000
Heat Index:   Visibility: 10mi
Dew Point:   Wind: 5mph
Humidity: 86%   Direction: 140°SE
Pressure: 29.88"   Gusts: NA
Location:  40.1994°N, 74.8145°W
Report Text: KTTN 210953Z 14004KT 10SM SCT080 OVC090 09/07 A2988 RMK AO2 SLP111 T00940072
Loading
Personal Weather Stations






























Interactive Weather Map
Tropical Storm Tracking
New forecast layout! Learn more

10-Day Weather Forecast

Advertisements
Track Severe Weather on mobile